Time;durP1;ratioP1;P1;durP2;ratioP2;P2;SDS_P1;SDS_P2;PMS_P1;PMS_P2;Temp;Humidity;BMP_temperature;BMP_pressure;BME280_temperature;BME280_humidity;BME280_pressure;Samples;Min_cycle;Max_cycle;Signal;HPM_P1;HPM_P2
2022/08/07 00:01:06;;;;;;;1.70;1.60;;;21.80;99.90;;;;;;5052437;28;20853;-76
2022/08/07 00:03:34;;;;;;;1.50;1.40;;;21.80;99.90;;;;;;5049011;28;20297;-76
2022/08/07 00:06:02;;;;;;;1.48;1.38;;;21.80;99.90;;;;;;5049885;28;20197;-78
2022/08/07 00:08:29;;;;;;;1.30;1.27;;;21.80;99.90;;;;;;5049514;28;20719;-77
2022/08/07 00:10:56;;;;;;;3.03;1.42;;;21.80;99.90;;;;;;5051170;28;20195;-75
2022/08/07 00:13:24;;;;;;;1.67;1.58;;;21.80;99.90;;;;;;5050067;28;20217;-76
2022/08/07 00:15:52;;;;;;;1.70;1.60;;;21.80;99.90;;;;;;5055004;28;20190;-76
2022/08/07 00:18:21;;;;;;;1.80;1.65;;;21.80;99.90;;;;;;5048223;28;20217;-74
2022/08/07 00:20:49;;;;;;;1.95;1.40;;;21.60;99.90;;;;;;5047409;28;20191;-76
2022/08/07 00:23:16;;;;;;;1.70;1.60;;;21.60;99.90;;;;;;5049306;28;20700;-76
2022/08/07 00:25:43;;;;;;;1.88;1.77;;;21.50;99.90;;;;;;5053448;28;20202;-75
2022/08/07 00:28:10;;;;;;;1.63;1.52;;;21.50;99.90;;;;;;5053329;28;20210;-76
2022/08/07 00:30:37;;;;;;;1.60;1.50;;;21.50;99.90;;;;;;5054251;28;20592;-76
2022/08/07 00:33:07;;;;;;;1.80;1.70;;;21.60;99.90;;;;;;5047888;28;20600;-76
2022/08/07 00:35:34;;;;;;;1.70;1.60;;;21.50;99.90;;;;;;5054426;28;20191;-76
2022/08/07 00:38:01;;;;;;;1.70;1.60;;;21.40;99.90;;;;;;5047683;28;20215;-72
2022/08/07 00:40:29;;;;;;;1.80;1.70;;;21.50;99.90;;;;;;5047970;28;20190;-77
2022/08/07 00:42:56;;;;;;;2.20;1.83;;;21.60;99.90;;;;;;5055159;28;20206;-75
2022/08/07 00:47:55;;;;;;;2.10;1.90;;;21.70;99.90;;;;;;5006916;28;20222;-76
2022/08/07 00:50:24;;;;;;;1.80;1.70;;;21.70;99.90;;;;;;5002801;28;20320;-76
2022/08/07 00:52:51;;;;;;;2.03;1.92;;;21.80;99.90;;;;;;5010391;28;20589;-76
2022/08/07 00:55:18;;;;;;;1.77;1.67;;;21.90;99.90;;;;;;5006466;28;20205;-75
2022/08/07 00:57:45;;;;;;;2.13;1.63;;;21.90;99.90;;;;;;5024349;28;20211;-75
2022/08/07 01:00:14;;;;;;;1.80;1.70;;;21.80;99.90;;;;;;5023472;28;20712;-76
2022/08/07 01:02:42;;;;;;;1.92;1.80;;;21.80;99.90;;;;;;5026101;28;20223;-76
2022/08/07 01:05:11;;;;;;;1.80;1.70;;;21.90;99.90;;;;;;5021588;28;20242;-75
2022/08/07 01:07:40;;;;;;;1.65;1.55;;;22.00;99.90;;;;;;5025427;28;20227;-76
2022/08/07 01:10:08;;;;;;;2.55;1.70;;;22.00;99.90;;;;;;5023386;28;20278;-75
2022/08/07 01:12:36;;;;;;;2.17;2.00;;;22.00;99.90;;;;;;5020758;28;20226;-76
2022/08/07 01:15:04;;;;;;;2.85;1.52;;;22.10;99.90;;;;;;5024742;28;20204;-75
2022/08/07 01:17:34;;;;;;;2.08;1.90;;;22.10;99.90;;;;;;5029446;28;20219;-75
2022/08/07 01:20:05;;;;;;;2.30;2.10;;;22.10;99.90;;;;;;5017801;28;20204;-76
2022/08/07 01:22:34;;;;;;;1.73;1.63;;;22.10;99.90;;;;;;5027595;28;20256;-75
2022/08/07 01:25:02;;;;;;;1.92;1.70;;;22.10;99.90;;;;;;5025915;28;20200;-76
2022/08/07 01:27:29;;;;;;;2.00;1.90;;;22.00;99.90;;;;;;5026753;28;20216;-75
2022/08/07 01:29:56;;;;;;;2.00;1.90;;;21.90;99.90;;;;;;5027796;28;20666;-75
2022/08/07 01:32:24;;;;;;;1.73;1.63;;;21.80;99.90;;;;;;5025989;28;20255;-76
2022/08/07 01:34:51;;;;;;;1.63;1.50;;;21.70;99.90;;;;;;5034503;28;20219;-75
2022/08/07 01:37:19;;;;;;;1.70;1.60;;;21.60;99.90;;;;;;5029774;28;20215;-77
2022/08/07 01:39:48;;;;;;;1.70;1.60;;;21.60;99.90;;;;;;5027746;28;20204;-76
2022/08/07 01:42:16;;;;;;;2.08;1.60;;;21.60;99.90;;;;;;5028249;28;20215;-76
2022/08/07 01:44:43;;;;;;;1.80;1.70;;;21.60;99.90;;;;;;5028935;28;20191;-76
2022/08/07 01:47:11;;;;;;;1.70;1.60;;;21.60;99.90;;;;;;5026306;28;20224;-75
2022/08/07 01:49:38;;;;;;;1.83;1.73;;;21.60;99.90;;;;;;5027009;28;20233;-75
2022/08/07 01:52:07;;;;;;;2.42;1.70;;;21.60;99.90;;;;;;5028865;28;20188;-76
2022/08/07 01:54:39;;;;;;;1.63;1.52;;;21.60;99.90;;;;;;5028758;28;20221;-75
2022/08/07 01:57:13;;;;;;;1.70;1.60;;;21.60;99.90;;;;;;5026633;28;20373;-76
2022/08/07 01:59:46;;;;;;;1.70;1.60;;;21.60;99.90;;;;;;5030070;28;20195;-76
2022/08/07 02:02:20;;;;;;;1.85;1.75;;;21.60;99.90;;;;;;5024405;28;20219;-76
2022/08/07 02:04:52;;;;;;;1.70;1.60;;;21.60;99.90;;;;;;5023756;28;20282;-75
2022/08/07 02:07:22;;;;;;;1.75;1.65;;;21.50;99.90;;;;;;5024421;28;20322;-74
2022/08/07 02:09:51;;;;;;;1.98;1.80;;;21.40;99.90;;;;;;5028198;28;20214;-76
2022/08/07 02:12:23;;;;;;;1.42;1.30;;;21.30;99.90;;;;;;5026556;28;20235;-76
2022/08/07 02:14:53;;;;;;;1.70;1.60;;;21.30;99.90;;;;;;5021252;28;20215;-76
2022/08/07 02:17:21;;;;;;;2.05;1.95;;;21.20;99.90;;;;;;5026726;28;20222;-76
2022/08/07 02:19:51;;;;;;;2.70;1.80;;;21.10;99.90;;;;;;5028538;28;20203;-75
2022/08/07 02:22:19;;;;;;;2.50;2.28;;;21.00;99.90;;;;;;5025699;28;20299;-74
2022/08/07 02:24:50;;;;;;;1.77;1.67;;;21.00;99.90;;;;;;5026926;28;20650;-76
2022/08/07 02:27:21;;;;;;;1.65;1.55;;;21.10;99.90;;;;;;5024524;28;20223;-77
2022/08/07 02:29:50;;;;;;;2.00;1.90;;;21.20;99.90;;;;;;5028667;28;20203;-74
2022/08/07 02:32:19;;;;;;;1.90;1.80;;;21.30;99.90;;;;;;5023451;28;20215;-76
2022/08/07 02:34:48;;;;;;;1.70;1.60;;;21.40;99.90;;;;;;5025560;28;20310;-75
2022/08/07 02:37:17;;;;;;;1.65;1.55;;;21.40;99.90;;;;;;5026304;28;20212;-75
2022/08/07 02:39:47;;;;;;;2.05;1.83;;;21.50;99.90;;;;;;5023115;28;20602;-75
2022/08/07 02:42:14;;;;;;;1.67;1.58;;;21.50;99.90;;;;;;5030357;28;20679;-76
2022/08/07 02:44:46;;;;;;;1.77;1.63;;;21.50;99.90;;;;;;5027368;28;20643;-76
2022/08/07 02:47:14;;;;;;;2.40;1.75;;;21.40;99.90;;;;;;5024284;28;20223;-76
2022/08/07 02:49:41;;;;;;;1.70;1.60;;;21.30;99.90;;;;;;5023943;28;20199;-75
2022/08/07 02:52:13;;;;;;;1.83;1.42;;;21.20;99.90;;;;;;5024104;28;20215;-76
2022/08/07 02:54:42;;;;;;;1.88;1.77;;;21.00;99.90;;;;;;5029099;28;20219;-76
2022/08/07 02:57:13;;;;;;;2.25;2.15;;;20.90;99.90;;;;;;5024469;28;20227;-75
2022/08/07 02:59:47;;;;;;;1.58;1.48;;;20.70;99.90;;;;;;5026263;28;20204;-76
2022/08/07 03:02:15;;;;;;;1.63;1.52;;;20.70;99.90;;;;;;5025981;28;20224;-75
2022/08/07 03:04:45;;;;;;;1.75;1.55;;;20.70;99.90;;;;;;5022816;28;20203;-75
2022/08/07 03:07:13;;;;;;;1.75;1.42;;;20.80;99.90;;;;;;5021113;28;20223;-76
2022/08/07 03:09:41;;;;;;;1.80;1.70;;;20.90;99.90;;;;;;5022898;28;20712;-75
2022/08/07 03:12:10;;;;;;;1.98;1.88;;;21.00;99.90;;;;;;5025851;28;20698;-75
2022/08/07 03:14:38;;;;;;;1.83;1.73;;;20.90;99.90;;;;;;5028012;28;20309;-75
2022/08/07 03:17:07;;;;;;;1.88;1.77;;;20.90;99.90;;;;;;5024531;28;20709;-75
2022/08/07 03:19:35;;;;;;;2.05;1.95;;;20.90;99.90;;;;;;5027437;28;20191;-76
2022/08/07 03:22:04;;;;;;;1.67;1.58;;;20.90;99.90;;;;;;5031337;28;20271;-75
2022/08/07 03:24:31;;;;;;;1.60;1.50;;;20.90;99.90;;;;;;5024225;28;20212;-76
2022/08/07 03:27:00;;;;;;;1.88;1.77;;;20.90;99.90;;;;;;5024670;28;20708;-75
2022/08/07 03:29:33;;;;;;;2.50;2.30;;;20.80;99.90;;;;;;5026649;28;20238;-76
2022/08/07 03:32:02;;;;;;;2.47;2.28;;;20.60;99.90;;;;;;5022435;28;20207;-75
2022/08/07 03:34:32;;;;;;;2.85;2.05;;;20.30;99.90;;;;;;5024872;28;20239;-76
2022/08/07 03:37:02;;;;;;;2.72;2.53;;;20.20;99.90;;;;;;5026069;28;20937;-75
2022/08/07 03:39:33;;;;;;;2.40;2.20;;;20.10;99.90;;;;;;5022608;28;20253;-76
2022/08/07 03:42:02;;;;;;;1.73;1.63;;;20.20;99.90;;;;;;5022919;28;20187;-76
2022/08/07 03:44:29;;;;;;;2.13;1.90;;;20.40;99.90;;;;;;5026835;28;20196;-76
2022/08/07 03:46:56;;;;;;;2.33;2.13;;;20.70;99.90;;;;;;5021649;28;20231;-75
2022/08/07 03:49:24;;;;;;;2.33;2.22;;;20.80;99.90;;;;;;5027989;28;20198;-76
2022/08/07 03:51:53;;;;;;;1.70;1.60;;;20.90;99.90;;;;;;5021212;28;20192;-76
2022/08/07 03:54:20;;;;;;;2.15;1.95;;;20.90;99.90;;;;;;5023548;28;20735;-75
2022/08/07 03:56:48;;;;;;;2.40;2.20;;;20.90;99.90;;;;;;5025155;28;20215;-76
2022/08/07 03:59:15;;;;;;;1.92;1.77;;;21.00;99.90;;;;;;5028181;28;20188;-76
2022/08/07 04:01:44;;;;;;;2.70;2.17;;;21.00;99.90;;;;;;5026290;28;20210;-76
2022/08/07 04:04:12;;;;;;;2.10;2.00;;;21.10;99.90;;;;;;5024542;28;20223;-75
2022/08/07 04:06:40;;;;;;;1.90;1.80;;;21.20;99.90;;;;;;5023644;28;20211;-76
2022/08/07 04:09:08;;;;;;;2.00;1.90;;;21.20;99.90;;;;;;5021983;28;20300;-76
2022/08/07 04:11:37;;;;;;;2.00;1.90;;;21.20;99.90;;;;;;5022830;28;20286;-75
2022/08/07 04:14:04;;;;;;;2.08;1.98;;;21.20;99.90;;;;;;5027457;28;20216;-76
2022/08/07 04:16:32;;;;;;;1.98;1.88;;;21.20;99.90;;;;;;5017915;28;20575;-75
2022/08/07 04:19:00;;;;;;;2.05;1.95;;;21.10;99.90;;;;;;5022490;28;20306;-75
2022/08/07 04:21:27;;;;;;;1.90;1.80;;;21.10;99.90;;;;;;5021171;28;20670;-77
2022/08/07 04:23:55;;;;;;;2.72;1.80;;;21.20;99.90;;;;;;5021749;28;20554;-76
2022/08/07 04:26:24;;;;;;;2.30;2.20;;;21.30;99.90;;;;;;5024374;28;20219;-76
2022/08/07 04:28:51;;;;;;;2.08;1.98;;;21.30;99.90;;;;;;5021158;28;20578;-76
2022/08/07 04:31:18;;;;;;;2.15;1.95;;;21.30;99.90;;;;;;5023287;28;20199;-76
2022/08/07 04:33:46;;;;;;;2.20;2.00;;;21.30;99.90;;;;;;5020876;28;20227;-75
2022/08/07 04:36:14;;;;;;;2.20;2.00;;;21.30;99.90;;;;;;5021148;28;20234;-76
2022/08/07 04:38:41;;;;;;;2.17;1.98;;;21.30;99.90;;;;;;5021110;28;20227;-76
2022/08/07 04:41:09;;;;;;;1.98;1.83;;;21.40;99.90;;;;;;5025223;28;20669;-76
2022/08/07 04:43:42;;;;;;;2.38;2.28;;;21.40;99.90;;;;;;5019298;28;20235;-76
2022/08/07 04:46:14;;;;;;;1.90;1.80;;;21.40;99.90;;;;;;5021744;28;20223;-76
2022/08/07 04:48:48;;;;;;;1.80;1.70;;;21.30;99.90;;;;;;5022928;28;20222;-75
2022/08/07 04:51:26;;;;;;;1.70;1.60;;;21.10;99.90;;;;;;5024158;28;20204;-75
2022/08/07 04:54:00;;;;;;;2.65;1.77;;;21.10;99.90;;;;;;5021176;28;20208;-76
2022/08/07 04:56:38;;;;;;;1.67;1.58;;;21.00;99.90;;;;;;5025219;28;20215;-75
2022/08/07 04:59:12;;;;;;;1.85;1.70;;;21.00;99.90;;;;;;5027562;28;20246;-76
2022/08/07 05:01:46;;;;;;;1.42;1.33;;;21.10;99.90;;;;;;5028354;28;20685;-76
2022/08/07 05:04:18;;;;;;;1.80;1.70;;;21.10;99.90;;;;;;5028087;28;20222;-75
2022/08/07 05:06:53;;;;;;;1.95;1.85;;;21.10;99.90;;;;;;5028553;28;20219;-76
2022/08/07 05:09:29;;;;;;;1.70;1.60;;;21.10;99.90;;;;;;5028204;28;20222;-76
2022/08/07 05:12:00;;;;;;;1.98;1.88;;;21.00;99.90;;;;;;5027251;28;20222;-75
2022/08/07 05:14:33;;;;;;;1.90;1.80;;;21.10;99.90;;;;;;5027917;28;20707;-75
2022/08/07 05:17:03;;;;;;;1.80;1.70;;;21.20;99.90;;;;;;5028993;28;20227;-75
2022/08/07 05:19:37;;;;;;;1.92;1.75;;;21.40;99.90;;;;;;5027290;28;20560;-76
2022/08/07 05:22:08;;;;;;;1.80;1.70;;;21.50;99.90;;;;;;5028742;28;20297;-75
2022/08/07 05:24:37;;;;;;;1.77;1.67;;;21.60;99.90;;;;;;5025655;28;20633;-75
2022/08/07 05:27:08;;;;;;;2.08;1.98;;;21.70;99.90;;;;;;5027082;28;20922;-75
2022/08/07 05:29:38;;;;;;;1.70;1.60;;;21.80;99.90;;;;;;5027689;28;20191;-76
2022/08/07 05:32:07;;;;;;;3.28;1.85;;;21.80;99.90;;;;;;5024861;28;20188;-75
2022/08/07 05:34:36;;;;;;;1.90;1.80;;;21.80;99.90;;;;;;5025693;28;20635;-75
2022/08/07 05:37:04;;;;;;;1.52;1.40;;;21.80;99.90;;;;;;5030975;28;20213;-75
2022/08/07 05:39:31;;;;;;;1.55;1.42;;;21.90;99.90;;;;;;5029202;28;20204;-75
2022/08/07 05:41:58;;;;;;;119.70;6.10;;;22.00;99.90;;;;;;5034102;28;20259;-76
2022/08/07 05:44:26;;;;;;;53.78;4.47;;;21.90;99.90;;;;;;5054629;28;20187;-75
2022/08/07 05:46:55;;;;;;;61.35;4.55;;;21.50;99.90;;;;;;5051264;28;20221;-75
2022/08/07 05:49:23;;;;;;;2.95;2.67;;;21.10;99.90;;;;;;5048655;28;20209;-76
2022/08/07 05:51:50;;;;;;;2.85;2.55;;;21.20;99.90;;;;;;5046383;28;20191;-75
2022/08/07 05:54:17;;;;;;;6.35;2.63;;;21.20;99.90;;;;;;5046365;28;20623;-75
2022/08/07 05:56:46;;;;;;;3.50;2.40;;;21.30;99.90;;;;;;5045892;28;20610;-76
2022/08/07 05:59:16;;;;;;;2.50;2.40;;;21.40;99.90;;;;;;5048120;28;20699;-75
2022/08/07 06:01:45;;;;;;;3.00;2.80;;;21.50;99.90;;;;;;5044406;28;20661;-74
2022/08/07 06:04:15;;;;;;;2.78;2.58;;;21.60;99.90;;;;;;5047909;28;20745;-76
2022/08/07 06:06:43;;;;;;;3.83;3.25;;;21.60;99.90;;;;;;5047996;28;20219;-75
2022/08/07 06:09:11;;;;;;;3.70;2.72;;;21.60;99.90;;;;;;5041727;28;20222;-75
2022/08/07 06:11:39;;;;;;;2.30;2.20;;;21.70;99.90;;;;;;5046405;28;20276;-75
2022/08/07 06:14:07;;;;;;;2.65;2.45;;;21.80;99.90;;;;;;5044595;28;20223;-76
2022/08/07 06:16:38;;;;;;;2.40;2.20;;;22.00;99.90;;;;;;5046632;28;20229;-76
2022/08/07 06:19:06;;;;;;;2.97;2.70;;;22.10;99.90;;;;;;5045018;28;20215;-76
2022/08/07 06:21:36;;;;;;;2.47;2.28;;;22.10;99.90;;;;;;5046603;28;20206;-76
2022/08/07 06:24:04;;;;;;;2.92;2.45;;;22.00;99.90;;;;;;5046755;28;20211;-76
2022/08/07 06:26:31;;;;;;;2.53;2.33;;;21.90;99.90;;;;;;5045459;28;20219;-76
2022/08/07 06:28:59;;;;;;;2.83;2.33;;;21.70;99.90;;;;;;5046073;28;20214;-76
2022/08/07 06:31:27;;;;;;;2.95;2.75;;;21.70;99.90;;;;;;5045852;28;20214;-76
2022/08/07 06:33:54;;;;;;;2.55;2.35;;;21.80;99.90;;;;;;5047484;28;20222;-76
2022/08/07 06:36:21;;;;;;;2.35;2.15;;;21.80;99.90;;;;;;5046770;28;20215;-76
2022/08/07 06:38:50;;;;;;;2.30;2.20;;;22.00;99.90;;;;;;5047851;28;20221;-75
2022/08/07 06:41:26;;;;;;;2.65;2.45;;;22.30;99.90;;;;;;5044581;28;20222;-75
2022/08/07 06:43:54;;;;;;;2.80;2.17;;;22.40;99.90;;;;;;5050360;28;20207;-75
2022/08/07 06:46:22;;;;;;;2.40;2.30;;;22.50;99.90;;;;;;5041615;28;20216;-75
2022/08/07 06:48:49;;;;;;;3.05;2.22;;;22.60;99.90;;;;;;5072050;22;20308;-78
2022/08/07 06:51:20;;;;;;;2.00;1.90;;;22.40;99.90;;;;;;5066290;28;20214;-78
2022/08/07 06:53:50;;;;;;;3.15;1.88;;;22.30;99.90;;;;;;5073704;28;20603;-78
2022/08/07 06:56:38;;;;;;;2.00;1.90;;;22.20;99.90;;;;;;5084660;28;20213;-78
2022/08/07 06:59:07;;;;;;;2.85;2.20;;;22.10;99.90;;;;;;5077543;28;20214;-79
2022/08/07 07:01:36;;;;;;;1.70;1.60;;;22.10;99.90;;;;;;5089768;28;20227;-79
2022/08/07 07:04:04;;;;;;;1.55;1.45;;;22.00;99.90;;;;;;5086925;28;20306;-78
2022/08/07 07:06:32;;;;;;;1.95;1.85;;;22.00;99.90;;;;;;5096405;28;20195;-79
2022/08/07 07:09:23;;;;;;;1.55;1.45;;;22.10;99.90;;;;;;5095703;28;20221;-79
2022/08/07 07:12:01;;;;;;;2.00;1.90;;;22.20;99.90;;;;;;5094994;28;20474;-78
2022/08/07 07:14:32;;;;;;;1.58;1.48;;;22.20;99.90;;;;;;5088134;28;20190;-78
2022/08/07 07:17:08;;;;;;;3.38;2.10;;;22.20;99.90;;;;;;5084203;28;20209;-78
2022/08/07 07:19:44;;;;;;;1.80;1.70;;;22.20;99.90;;;;;;5097615;28;20265;-78
2022/08/07 07:22:12;;;;;;;2.03;1.90;;;22.20;99.90;;;;;;5091419;28;20311;-79
2022/08/07 07:24:42;;;;;;;1.80;1.70;;;22.30;99.90;;;;;;5085057;28;20198;-79
2022/08/07 07:27:13;;;;;;;1.80;1.70;;;22.40;99.90;;;;;;5092875;28;20221;-79
2022/08/07 07:29:46;;;;;;;1.80;1.70;;;22.40;99.90;;;;;;5093845;28;20222;-78
2022/08/07 07:32:15;;;;;;;2.17;1.95;;;22.40;99.90;;;;;;5094850;28;20225;-78
2022/08/07 07:34:46;;;;;;;1.90;1.80;;;22.30;99.90;;;;;;5086913;28;20215;-79
2022/08/07 07:37:15;;;;;;;2.47;2.00;;;22.30;99.90;;;;;;5088763;28;20686;-78
2022/08/07 07:39:46;;;;;;;2.50;2.30;;;22.10;99.90;;;;;;5088310;28;20226;-78
2022/08/07 07:42:16;;;;;;;2.47;1.95;;;22.00;99.90;;;;;;5086153;28;20609;-79
2022/08/07 07:44:46;;;;;;;2.70;1.98;;;22.00;99.90;;;;;;5089577;28;20184;-78
2022/08/07 07:47:15;;;;;;;2.50;2.30;;;22.00;99.90;;;;;;5092481;28;20217;-78
2022/08/07 07:49:45;;;;;;;2.20;2.10;;;22.00;99.90;;;;;;5094470;28;20220;-78
2022/08/07 07:52:14;;;;;;;2.67;2.00;;;22.10;99.90;;;;;;5090525;28;20217;-78
2022/08/07 07:54:45;;;;;;;2.00;1.90;;;22.20;99.90;;;;;;5094626;28;20307;-78
2022/08/07 07:57:14;;;;;;;2.50;1.98;;;22.30;99.90;;;;;;5086956;28;20566;-77
2022/08/07 07:59:42;;;;;;;2.10;2.00;;;22.40;99.90;;;;;;5095579;28;20245;-78
2022/08/07 08:02:13;;;;;;;2.13;2.03;;;22.50;99.90;;;;;;5088249;28;20342;-78
2022/08/07 08:04:43;;;;;;;2.20;2.10;;;22.50;99.90;;;;;;5096479;28;20208;-78
2022/08/07 08:07:11;;;;;;;2.08;1.98;;;22.50;99.90;;;;;;5087664;28;20234;-79
2022/08/07 08:09:40;;;;;;;2.47;2.00;;;22.50;99.90;;;;;;5090940;28;20232;-78
2022/08/07 08:12:10;;;;;;;2.17;2.08;;;22.50;99.90;;;;;;5097577;28;20230;-78
2022/08/07 08:14:37;;;;;;;2.10;2.00;;;22.40;99.90;;;;;;5092664;28;20209;-79
2022/08/07 08:17:07;;;;;;;2.08;1.98;;;22.30;99.90;;;;;;5090199;28;20210;-78
2022/08/07 08:19:36;;;;;;;2.00;1.90;;;22.30;99.90;;;;;;5087357;28;20327;-78
2022/08/07 08:27:41;;;;;;;2.10;1.90;;;22.70;99.90;;;;;;5090906;28;20266;-79
2022/08/07 08:30:11;;;;;;;2.25;2.15;;;22.80;99.90;;;;;;5090230;28;20236;-78
2022/08/07 08:32:41;;;;;;;2.30;2.10;;;22.90;99.90;;;;;;5092844;28;20223;-79
2022/08/07 08:35:11;;;;;;;2.50;2.30;;;22.90;99.90;;;;;;5094077;28;20282;-79
2022/08/07 08:37:40;;;;;;;2.88;2.67;;;23.00;99.90;;;;;;5104746;28;20224;-78
2022/08/07 08:40:13;;;;;;;2.50;2.40;;;22.90;99.90;;;;;;5091666;28;20221;-78
2022/08/07 08:42:46;;;;;;;2.67;2.35;;;22.80;99.90;;;;;;5094504;28;20223;-78
2022/08/07 08:45:21;;;;;;;2.55;2.35;;;22.80;99.90;;;;;;5096887;28;20551;-78
2022/08/07 08:48:00;;;;;;;2.70;2.50;;;22.90;99.90;;;;;;5098451;28;20219;-78
2022/08/07 08:50:32;;;;;;;2.42;2.33;;;23.10;99.90;;;;;;5091995;28;20255;-79
2022/08/07 08:53:09;;;;;;;2.47;2.00;;;23.20;99.90;;;;;;5092787;28;20219;-78
2022/08/07 08:55:41;;;;;;;2.40;2.30;;;23.20;99.90;;;;;;5095384;28;20227;-79
2022/08/07 08:58:15;;;;;;;2.45;1.95;;;23.20;99.90;;;;;;5087917;28;20239;-78
2022/08/07 09:00:45;;;;;;;2.53;2.33;;;23.20;99.90;;;;;;5087318;28;20224;-77
2022/08/07 09:03:22;;;;;;;5.18;2.10;;;23.20;99.90;;;;;;5085731;28;20718;-78
2022/08/07 09:05:55;;;;;;;2.08;1.98;;;23.20;99.90;;;;;;5102668;28;20700;-78
2022/08/07 09:08:31;;;;;;;2.17;2.08;;;23.30;99.90;;;;;;5090771;28;20223;-78
2022/08/07 09:11:17;;;;;;;2.88;2.53;;;23.40;99.90;;;;;;5084758;28;20197;-78
2022/08/07 09:14:01;;;;;;;2.40;2.30;;;23.60;99.90;;;;;;5089883;28;20217;-79
2022/08/07 09:16:41;;;;;;;2.20;2.10;;;23.70;99.90;;;;;;5092456;28;20308;-78
2022/08/07 09:19:30;;;;;;;2.50;2.30;;;23.70;99.90;;;;;;5092736;28;20710;-78
2022/08/07 09:22:11;;;;;;;2.15;2.05;;;23.80;99.90;;;;;;5087957;28;20229;-77
2022/08/07 09:24:50;;;;;;;2.33;2.22;;;23.70;99.90;;;;;;5091576;28;20659;-77
2022/08/07 09:27:28;;;;;;;2.70;2.50;;;23.70;99.90;;;;;;5090439;28;20226;-78
2022/08/07 09:30:02;;;;;;;2.78;2.58;;;23.70;99.90;;;;;;5088922;28;20221;-78
2022/08/07 09:32:52;;;;;;;2.30;2.20;;;23.50;99.90;;;;;;5090692;28;20215;-78
2022/08/07 09:35:29;;;;;;;2.83;2.63;;;23.40;99.90;;;;;;5088568;28;20224;-78
2022/08/07 09:38:05;;;;;;;2.85;2.65;;;23.40;99.90;;;;;;5087947;28;20220;-79
2022/08/07 09:40:40;;;;;;;2.42;2.33;;;23.30;99.90;;;;;;5090860;28;20217;-78
2022/08/07 09:43:21;;;;;;;2.55;2.35;;;23.20;99.90;;;;;;5097413;28;20216;-79
2022/08/07 09:46:04;;;;;;;2.10;2.00;;;23.40;99.90;;;;;;5093313;28;20192;-79
2022/08/07 09:48:41;;;;;;;2.33;2.13;;;23.40;99.90;;;;;;5098140;28;20220;-79
2022/08/07 09:51:29;;;;;;;3.00;2.80;;;23.60;99.90;;;;;;5090536;28;20243;-78
2022/08/07 09:54:02;;;;;;;2.50;2.30;;;23.50;99.90;;;;;;5103339;28;20220;-78
2022/08/07 09:57:03;;;;;;;2.42;2.22;;;23.60;99.90;;;;;;5088220;28;20721;-78
2022/08/07 09:59:55;;;;;;;2.55;2.35;;;23.50;99.90;;;;;;5094197;28;20225;-78
2022/08/07 10:02:52;;;;;;;2.60;2.45;;;23.50;99.90;;;;;;5078546;28;20237;-78
2022/08/07 10:05:34;;;;;;;2.42;2.22;;;23.50;99.90;;;;;;5075726;28;20198;-79
2022/08/07 10:08:20;;;;;;;2.20;2.10;;;23.60;99.90;;;;;;5088557;28;20217;-78
2022/08/07 10:10:53;;;;;;;2.13;2.00;;;23.70;99.90;;;;;;5095857;28;20209;-79
2022/08/07 10:13:50;;;;;;;2.40;2.20;;;23.70;99.90;;;;;;5087595;28;20322;-79
2022/08/07 10:16:32;;;;;;;2.53;2.33;;;23.80;99.90;;;;;;5072623;28;20224;-78
2022/08/07 10:19:25;;;;;;;2.78;2.20;;;23.70;99.90;;;;;;5069061;28;20217;-78
2022/08/07 10:22:03;;;;;;;2.40;2.20;;;23.80;99.90;;;;;;5071187;28;20669;-78
2022/08/07 10:24:58;;;;;;;2.47;2.28;;;23.70;99.90;;;;;;5091318;28;20679;-79
2022/08/07 10:27:51;;;;;;;2.47;2.28;;;23.70;99.90;;;;;;5074075;28;20214;-78
2022/08/07 10:30:24;;;;;;;2.47;2.28;;;23.70;99.90;;;;;;5066864;28;20281;-78
2022/08/07 10:33:13;;;;;;;2.30;2.20;;;23.70;99.90;;;;;;5077165;28;20225;-79
2022/08/07 10:35:55;;;;;;;2.60;2.40;;;23.80;99.90;;;;;;5088890;28;20248;-79
2022/08/07 10:38:38;;;;;;;2.20;2.10;;;23.80;99.90;;;;;;5089869;28;20217;-78
2022/08/07 10:41:11;;;;;;;2.03;1.92;;;23.80;99.90;;;;;;5089693;28;20198;-79
2022/08/07 10:43:44;;;;;;;1.98;1.88;;;23.90;99.90;;;;;;5084465;28;20221;-79
2022/08/07 10:46:18;;;;;;;2.00;1.90;;;24.00;99.90;;;;;;5089389;28;20201;-78
2022/08/07 10:48:55;;;;;;;2.20;2.05;;;24.10;99.90;;;;;;5085296;28;20221;-78
2022/08/07 10:51:32;;;;;;;2.35;2.25;;;24.10;99.90;;;;;;5084736;28;20202;-79
2022/08/07 10:54:10;;;;;;;2.30;2.20;;;24.30;99.90;;;;;;5078740;28;20221;-79
2022/08/07 10:56:49;;;;;;;2.17;2.08;;;24.40;99.90;;;;;;5083800;28;20221;-78
2022/08/07 10:59:35;;;;;;;2.22;2.13;;;24.40;99.90;;;;;;5093780;28;20228;-79
2022/08/07 11:02:11;;;;;;;2.25;2.15;;;24.40;99.90;;;;;;5087721;28;20224;-78
2022/08/07 11:04:52;;;;;;;2.10;2.00;;;24.40;99.90;;;;;;5091513;28;20722;-77
2022/08/07 11:07:33;;;;;;;2.15;2.05;;;24.30;99.90;;;;;;5089292;28;20263;-79
2022/08/07 11:10:07;;;;;;;2.08;1.65;;;24.30;99.90;;;;;;5089075;28;20221;-79
2022/08/07 11:12:45;;;;;;;2.38;1.80;;;24.30;99.90;;;;;;5091512;28;20217;-78
2022/08/07 11:15:17;;;;;;;2.15;1.98;;;24.20;99.90;;;;;;5086579;28;20216;-80
2022/08/07 11:17:50;;;;;;;2.22;2.10;;;24.10;99.90;;;;;;5096107;28;20221;-81
2022/08/07 11:20:22;;;;;;;2.25;2.05;;;24.00;99.90;;;;;;5089201;28;20197;-80
2022/08/07 11:22:59;;;;;;;2.70;2.50;;;24.00;99.90;;;;;;5089927;28;20218;-79
2022/08/07 11:25:35;;;;;;;2.30;2.10;;;24.00;99.90;;;;;;5092367;28;20201;-80
2022/08/07 11:28:08;;;;;;;2.42;2.20;;;23.90;99.90;;;;;;5089954;28;20641;-78
2022/08/07 11:30:45;;;;;;;3.15;2.35;;;23.80;99.90;;;;;;5094296;28;20545;-79
2022/08/07 11:33:23;;;;;;;2.83;2.63;;;23.80;99.90;;;;;;5093615;28;20694;-79
2022/08/07 11:36:02;;;;;;;2.35;2.15;;;23.70;99.90;;;;;;5086444;28;20284;-79
2022/08/07 11:38:39;;;;;;;2.90;2.15;;;23.90;99.90;;;;;;5088045;28;20221;-80
2022/08/07 11:41:14;;;;;;;2.40;2.00;;;23.90;99.90;;;;;;5085151;28;20593;-79
2022/08/07 11:43:52;;;;;;;2.72;2.55;;;23.90;99.90;;;;;;5088312;28;20212;-80
2022/08/07 11:46:34;;;;;;;2.60;2.40;;;23.90;99.90;;;;;;5088918;28;20240;-79
2022/08/07 11:49:20;;;;;;;2.20;2.10;;;24.00;99.90;;;;;;5096179;28;20589;-80
2022/08/07 11:52:09;;;;;;;2.42;2.33;;;24.00;99.90;;;;;;5098849;28;20197;-80
2022/08/07 11:54:55;;;;;;;2.78;2.58;;;24.00;99.90;;;;;;5089195;28;20198;-79
2022/08/07 11:57:33;;;;;;;2.40;2.30;;;23.90;99.90;;;;;;5089900;28;20228;-79
2022/08/07 12:00:08;;;;;;;2.75;2.55;;;23.80;99.90;;;;;;5094751;28;20241;-81
2022/08/07 12:03:15;;;;;;;3.60;3.00;;;23.80;99.90;;;;;;5092962;28;20239;-81
2022/08/07 12:05:48;;;;;;;2.47;2.38;;;23.80;99.90;;;;;;5089486;28;20255;-81
2022/08/07 12:08:20;;;;;;;2.30;2.13;;;23.80;99.90;;;;;;5087487;28;20226;-81
2022/08/07 12:10:52;;;;;;;2.00;1.90;;;23.90;99.90;;;;;;5087799;28;20197;-80
2022/08/07 12:13:37;;;;;;;2.10;1.90;;;23.90;99.90;;;;;;5091813;28;20216;-78
2022/08/07 12:16:09;;;;;;;2.00;1.90;;;24.00;99.90;;;;;;5085287;28;20197;-81
2022/08/07 12:18:43;;;;;;;2.85;2.17;;;24.00;99.90;;;;;;5094951;28;20862;-79
2022/08/07 12:21:20;;;;;;;2.55;2.38;;;24.00;99.90;;;;;;5088151;28;20205;-80
2022/08/07 12:23:54;;;;;;;2.40;2.30;;;24.00;99.90;;;;;;5091896;28;20729;-80
2022/08/07 12:26:29;;;;;;;2.50;2.40;;;24.00;99.90;;;;;;5087552;28;20200;-80
2022/08/07 12:29:03;;;;;;;2.47;2.35;;;24.00;99.90;;;;;;5088353;28;20582;-79
2022/08/07 12:31:38;;;;;;;2.75;2.55;;;24.00;99.90;;;;;;5093877;28;20197;-79
2022/08/07 12:34:06;;;;;;;2.42;2.30;;;24.00;99.90;;;;;;5089774;28;20719;-79
2022/08/07 12:36:36;;;;;;;2.17;2.08;;;23.90;99.90;;;;;;5086141;28;20221;-79
2022/08/07 12:39:05;;;;;;;2.53;2.33;;;23.90;99.90;;;;;;5091796;28;20220;-81
2022/08/07 12:41:36;;;;;;;2.20;2.00;;;23.90;99.90;;;;;;5090613;28;20201;-80
2022/08/07 12:44:07;;;;;;;2.28;2.08;;;23.90;99.90;;;;;;5087509;28;20217;-80
2022/08/07 12:46:55;;;;;;;2.40;2.30;;;23.80;99.90;;;;;;5093195;28;20663;-79
2022/08/07 12:49:30;;;;;;;2.50;2.30;;;23.80;99.90;;;;;;5088683;28;20221;-81
2022/08/07 12:52:04;;;;;;;2.67;2.42;;;23.80;99.90;;;;;;5087793;28;20201;-81
2022/08/07 12:54:36;;;;;;;2.15;2.05;;;23.80;99.90;;;;;;5091361;28;20247;-81
2022/08/07 12:57:06;;;;;;;2.42;2.22;;;23.80;99.90;;;;;;5092278;28;20308;-82
2022/08/07 12:59:36;;;;;;;2.90;2.70;;;24.00;99.90;;;;;;5088679;28;20303;-82
2022/08/07 13:02:37;;;;;;;2.70;2.50;;;24.10;99.90;;;;;;5084752;28;20194;-81
2022/08/07 13:05:15;;;;;;;2.63;2.42;;;24.10;99.90;;;;;;5091235;28;20194;-81
2022/08/07 13:08:01;;;;;;;2.22;2.13;;;24.10;99.90;;;;;;5089270;28;20214;-79
2022/08/07 13:10:41;;;;;;;2.40;2.30;;;24.10;99.90;;;;;;5092099;28;20199;-81
2022/08/07 13:13:44;;;;;;;2.28;2.17;;;24.20;99.90;;;;;;5093715;28;20213;-80
2022/08/07 13:16:17;;;;;;;2.20;2.10;;;24.30;99.90;;;;;;5094633;28;20198;-82
2022/08/07 13:18:53;;;;;;;2.53;2.40;;;24.40;99.90;;;;;;5093918;28;20220;-81
2022/08/07 13:21:24;;;;;;;2.50;2.30;;;24.40;99.90;;;;;;5092042;28;20193;-81